createdAt,value
2022-12-11T00:01:25.041Z,-0.62
2022-12-11T00:11:25.068Z,-0.63
2022-12-11T00:21:25.257Z,-0.70
2022-12-11T00:31:25.455Z,-0.69
2022-12-11T00:41:25.558Z,-0.77
2022-12-11T00:51:25.710Z,-0.73
2022-12-11T01:01:26.000Z,-0.83
2022-12-11T01:11:26.052Z,-0.72
2022-12-11T01:21:26.242Z,-0.70
2022-12-11T01:31:26.432Z,-0.77
2022-12-11T01:41:26.609Z,-0.77
2022-12-11T01:51:26.817Z,-0.70
2022-12-11T02:01:27.002Z,-0.77
2022-12-11T02:11:27.105Z,-0.83
2022-12-11T02:21:27.450Z,-0.84
2022-12-11T02:31:27.475Z,-0.95
2022-12-11T02:41:27.550Z,-0.99
2022-12-11T02:51:27.768Z,-0.99
2022-12-11T03:01:28.021Z,-0.97
2022-12-11T03:11:28.027Z,-1.00
2022-12-11T03:21:28.192Z,-0.99
2022-12-11T03:31:28.901Z,-1.09
2022-12-11T03:41:28.602Z,-1.02
2022-12-11T03:51:28.781Z,-0.99
2022-12-11T04:01:28.982Z,-1.02
2022-12-11T04:11:29.088Z,-1.12
2022-12-11T04:21:29.559Z,-1.35
2022-12-11T04:31:30.301Z,-1.36
2022-12-11T04:41:29.572Z,-1.25
2022-12-11T04:51:29.773Z,-1.23
2022-12-11T05:01:29.982Z,-1.21
2022-12-11T05:11:30.058Z,-1.23
2022-12-11T05:21:34.823Z,-1.21
2022-12-11T05:31:30.417Z,-1.21
2022-12-11T05:41:30.571Z,-1.18
2022-12-11T05:51:30.785Z,-1.20
2022-12-11T06:01:30.931Z,-1.21
2022-12-11T06:11:31.139Z,-1.28
2022-12-11T06:21:31.359Z,-1.49
2022-12-11T06:31:31.513Z,-2.00
2022-12-11T06:41:31.574Z,-2.28
2022-12-11T06:51:31.897Z,-2.61
2022-12-11T07:01:31.969Z,-2.96
2022-12-11T07:11:32.158Z,-2.81
2022-12-11T07:21:32.314Z,-2.89
2022-12-11T07:31:32.568Z,-2.85
2022-12-11T07:41:32.653Z,-2.74
2022-12-11T07:51:32.875Z,-2.45
2022-12-11T08:01:33.304Z,-2.03
2022-12-11T08:11:33.199Z,-1.99
2022-12-11T08:21:33.345Z,-1.74
2022-12-11T08:31:33.579Z,-1.31
2022-12-11T08:41:33.729Z,-0.94
2022-12-11T08:51:33.922Z,-0.80
2022-12-11T09:01:34.349Z,-0.72
2022-12-11T09:11:34.278Z,-0.65
2022-12-11T09:21:34.419Z,-0.44
2022-12-11T09:31:34.635Z,-0.26
2022-12-11T09:41:35.078Z,-0.54
2022-12-11T09:51:34.943Z,-0.75
2022-12-11T10:01:35.405Z,-0.42
2022-12-11T10:11:35.254Z,-0.42
2022-12-11T10:21:35.572Z,-0.57
2022-12-11T10:31:36.070Z,0.00
2022-12-11T10:41:35.776Z,0.09
2022-12-11T10:51:36.113Z,-0.12
2022-12-11T11:01:36.085Z,0.06
2022-12-11T11:11:36.204Z,-0.11
2022-12-11T11:21:36.422Z,0.15
2022-12-11T11:31:36.668Z,0.02
2022-12-11T11:41:36.871Z,0.61
2022-12-11T11:51:37.168Z,0.72
2022-12-11T12:01:38.349Z,0.60
2022-12-11T12:11:37.418Z,0.20
2022-12-11T12:21:37.503Z,0.34
2022-12-11T12:31:37.718Z,0.58
2022-12-11T12:41:37.802Z,0.82
2022-12-11T12:51:38.039Z,0.24
2022-12-11T13:01:38.231Z,0.51
2022-12-11T13:11:38.456Z,0.58
2022-12-11T13:21:38.656Z,0.60
2022-12-11T13:31:38.987Z,0.16
2022-12-11T13:41:38.996Z,-0.23
2022-12-11T13:51:39.188Z,-0.24
2022-12-11T14:01:39.317Z,-0.33
2022-12-11T14:11:39.529Z,-0.48
2022-12-11T14:21:39.662Z,-0.57
2022-12-11T14:31:39.942Z,-0.52
2022-12-11T14:41:40.031Z,-0.69
2022-12-11T14:51:40.327Z,-0.86
2022-12-11T15:01:40.378Z,-1.05
2022-12-11T15:11:40.464Z,-1.42
2022-12-11T15:21:40.616Z,-1.67
2022-12-11T15:31:40.889Z,-1.90
2022-12-11T15:41:40.973Z,-1.82
2022-12-11T15:51:43.181Z,-1.51
2022-12-11T16:01:41.345Z,-1.70
2022-12-11T16:11:41.631Z,-2.18
2022-12-11T16:21:41.556Z,-2.18
2022-12-11T16:31:41.879Z,-1.92
2022-12-11T16:41:41.928Z,-1.75
2022-12-11T16:51:42.512Z,-1.54
2022-12-11T17:01:42.367Z,-1.41
2022-12-11T17:11:42.562Z,-1.28
2022-12-11T17:21:45.877Z,-1.30
2022-12-11T17:31:43.905Z,-1.23
2022-12-11T17:41:43.195Z,-1.31
2022-12-11T17:51:48.471Z,-1.43
2022-12-11T18:01:44.760Z,-1.54
2022-12-11T18:11:43.645Z,-1.84
2022-12-11T18:21:43.826Z,-1.96
2022-12-11T18:31:44.374Z,-1.78
2022-12-11T18:41:45.619Z,-1.69
2022-12-11T18:51:45.346Z,-1.62
2022-12-11T19:01:44.567Z,-1.49
2022-12-11T19:11:44.646Z,-1.57
2022-12-11T19:21:44.793Z,-1.63
2022-12-11T19:31:45.052Z,-1.74
2022-12-11T19:41:45.102Z,-2.20
2022-12-11T19:51:45.314Z,-2.56
2022-12-11T20:01:45.511Z,-2.89
2022-12-11T20:11:45.849Z,-3.26
2022-12-11T20:21:45.882Z,-3.49
2022-12-11T20:31:51.847Z,-3.39
2022-12-11T20:41:47.406Z,-3.47
2022-12-11T20:51:46.318Z,-3.44
2022-12-11T21:01:46.679Z,-3.49
2022-12-11T21:11:46.637Z,-3.49
2022-12-11T21:21:46.848Z,-3.14
2022-12-11T21:31:47.167Z,-2.76
2022-12-11T21:41:47.273Z,-2.40
2022-12-11T21:51:47.826Z,-2.20
2022-12-11T22:01:47.992Z,-2.05
2022-12-11T22:11:47.803Z,-2.08
2022-12-11T22:21:53.062Z,-2.03
2022-12-11T22:31:49.193Z,-2.13
2022-12-11T22:41:50.403Z,-2.00
2022-12-11T22:51:48.491Z,-1.92
2022-12-11T23:01:48.634Z,-1.84
2022-12-11T23:11:54.852Z,-1.88
2022-12-11T23:21:56.064Z,-1.87
2022-12-11T23:31:50.184Z,-1.78
2022-12-11T23:41:49.519Z,-1.81
2022-12-11T23:51:49.487Z,-1.99
